• Join FlightAware (Why Join?)
  • Login
  • US Flag 
09:06AM EDT


 

Airport Tracker/Info


-or-


 

Live Flight TrackerFlight Track Log ✈ N143DE ✈ 21-Jan-2014 ✈ KATL - KROC

Flight Track Log - Related Links

Times and Time Zones

All times are in EST time to prevent confusion due to time zone crossing. See the N143DE flight status page for this flight to view local times or setup timezone preferences in your user account.

Time Position Orientation Groundspeed Altitude Reporting Facility
EST Latitude Longitude Course Direction KTS MPH feet Rate Location/Type
02:42AM 33.6333 -84.4833 266° West 130 150 3,900  Level Atlanta TRACON
02:43AM 33.6500 -84.5167 301° West 154 177 5,700 1,800 Climbing Atlanta TRACON
02:44AM 33.6833 -84.5167 360° North 173 199 7,500 1,680 Climbing Atlanta TRACON
02:46AM 33.7933 -84.4961 North 183 211 11,100 1,620 Climbing Atlanta Center
02:47AM 33.8456 -84.4764 17° North 188 216 12,600 1,320 Climbing Atlanta Center
02:48AM 33.9022 -84.4492 22° Northeast 197 227 13,800 1,200 Climbing Atlanta Center
02:49AM 33.9564 -84.4219 23° Northeast 220 253 15,000 1,140 Climbing Atlanta Center
02:50AM 34.0211 -84.3972 18° North 220 253 16,100 960 Climbing Atlanta Center
02:51AM 34.0861 -84.3750 16° North 230 265 17,000 960 Climbing Atlanta Center
02:52AM 34.1569 -84.3575 12° North 241 277 18,100 1,080 Climbing Atlanta Center
02:53AM 34.2239 -84.3428 10° North 247 284 19,200 960 Climbing Atlanta Center
02:54AM 34.2906 -84.3281 10° North 242 278 20,100 840 Climbing Atlanta Center
02:55AM 34.3553 -84.3131 11° North 242 278 20,900 720 Climbing Atlanta Center
02:56AM 34.4222 -84.2956 12° North 237 273 21,600 780 Climbing Atlanta Center
02:57AM 34.4892 -84.2756 14° North 237 273 22,500 840 Climbing Atlanta Center
02:58AM 34.5539 -84.2633 North 237 273 23,300 660 Climbing Atlanta Center
02:59AM 34.6122 -84.2458 14° North 237 273 23,900 600 Climbing Atlanta Center
03:00AM 34.6769 -84.2283 13° North 237 273 24,500 540 Climbing Atlanta Center
03:01AM 34.7458 -84.2106 12° North 237 273 25,000 240 Climbing Atlanta Center
03:02AM 34.8253 -84.1931 10° North 247 284 25,000  Level Atlanta Center
03:03AM 34.9003 -84.1731 12° North 258 297 25,000  Level Atlanta Center
03:04AM 34.9756 -84.1528 12° North 263 303 25,000  Level Atlanta Center
03:05AM 35.0528 -84.1325 12° North 274 315 25,000  Level Atlanta Center
03:06AM 35.1300 -84.1097 14° North 274 315 25,000  Level Atlanta Center
03:07AM 35.2072 -84.0894 12° North 279 321 25,000  Level Atlanta Center
03:08AM 35.2864 -84.0667 13° North 279 321 25,000  Level Atlanta Center
03:09AM 35.3656 -84.0439 13° North 279 321 25,000  Level Atlanta Center
03:10AM 35.4450 -84.0208 13° North 279 321 25,000  Level Atlanta Center
03:11AM 35.5222 -83.9750 26° Northeast 285 328 25,000  Level Atlanta Center
03:12AM 35.5994 -83.9314 25° Northeast 295 339 25,000  Level Atlanta Center
03:13AM 35.6806 -83.8853 25° Northeast 300 345 25,000  Level Atlanta Center
03:14AM 35.7578 -83.8392 26° Northeast 300 345 25,000  Level Atlanta Center
03:15AM 35.8369 -83.7928 25° Northeast 300 345 25,000  Level Atlanta Center
03:16AM 35.9161 -83.7464 25° Northeast 300 345 25,000  Level Atlanta Center
03:17AM 35.9953 -83.7025 24° Northeast 300 345 25,000  Level Atlanta Center
03:18AM 36.0764 -83.6558 25° Northeast 300 345 25,000  Level Atlanta Center
03:19AM 36.1556 -83.6067 27° Northeast 306 352 25,000  Level Atlanta Center
03:21AM 36.2564 -83.5481 25° Northeast 322 371 25,000  Level Indianapolis Center
03:22AM 36.3308 -83.5025 26° Northeast 323 372 25,000  Level Indianapolis Center
03:23AM 36.4133 -83.4553 25° Northeast 325 374 25,000  Level Indianapolis Center
03:24AM 36.4953 -83.4078 25° Northeast 324 373 25,000  Level Indianapolis Center
03:25AM 36.5775 -83.3572 26° Northeast 326 375 25,000  Level Indianapolis Center
03:26AM 36.6597 -83.3092 25° Northeast 326 375 25,000  Level Indianapolis Center
03:27AM 36.7422 -83.2597 26° Northeast 326 375 25,000  Level Indianapolis Center
03:28AM 36.8267 -83.2075 26° Northeast 333 383 25,000  Level Indianapolis Center
03:29AM 36.9122 -83.1569 25° Northeast 338 389 25,000  Level Indianapolis Center
03:30AM 36.9964 -83.1044 26° Northeast 334 384 25,000  Level Indianapolis Center
03:31AM 37.0806 -83.0564 24° Northeast 328 377 25,000  Level Indianapolis Center
03:32AM 37.1653 -83.0053 26° Northeast 332 382 25,000  Level Indianapolis Center
03:33AM 37.2492 -82.9556 25° Northeast 330 380 25,000  Level Indianapolis Center
03:34AM 37.3331 -82.9050 26° Northeast 330 380 25,000  Level Indianapolis Center
03:35AM 37.4186 -82.8525 26° Northeast 337 388 25,000  Level Indianapolis Center
03:36AM 37.5036 -82.8003 26° Northeast 339 390 25,000  Level Indianapolis Center
03:37AM 37.5872 -82.7478 26° Northeast 334 384 25,000  Level Indianapolis Center
03:38AM 37.6725 -82.6961 26° Northeast 338 389 25,000  Level Indianapolis Center
03:39AM 37.7572 -82.6439 26° Northeast 341 392 25,000  Level Indianapolis Center
03:40AM 37.8414 -82.5919 26° Northeast 335 386 25,000  Level Indianapolis Center
03:41AM 37.9286 -82.5417 24° Northeast 339 390 25,000  Level Indianapolis Center
03:42AM 38.0136 -82.4864 27° Northeast 342 394 25,000  Level Indianapolis Center
03:43AM 38.0986 -82.4375 24° Northeast 335 386 25,000  Level Indianapolis Center
03:44AM 38.1850 -82.3806 27° Northeast 343 395 25,000  Level Indianapolis Center
03:45AM 38.2703 -82.3294 25° Northeast 339 390 25,000  Level Indianapolis Center
03:46AM 38.3556 -82.2747 27° Northeast 341 392 25,000  Level Indianapolis Center
03:48AM 38.5253 -82.1694 26° Northeast 337 388 25,000  Level Indianapolis Center
03:49AM 38.6100 -82.1136 27° Northeast 340 391 25,000  Level Indianapolis Center
03:50AM 38.6944 -82.0628 25° Northeast 334 384 25,000  Level Indianapolis Center
03:51AM 38.7775 -82.0022 30° Northeast 341 392 25,000  Level Indianapolis Center
03:52AM 38.8547 -81.9292 36° Northeast 341 392 25,000  Level Indianapolis Center
03:53AM 38.9328 -81.8581 35° Northeast 342 394 25,000  Level Indianapolis Center
03:54AM 38.9936 -81.7983 37° Northeast 341 392 25,000  Level Indianapolis Center
03:55AM 39.0708 -81.7253 36° Northeast 341 392 25,000  Level Indianapolis Center
03:56AM 39.1489 -81.6542 35° Northeast 341 392 25,000  Level Indianapolis Center
03:57AM 39.2256 -81.5794 37° Northeast 344 396 25,000  Level Indianapolis Center
03:58AM 39.3019 -81.5078 36° Northeast 340 391 25,000  Level Indianapolis Center
03:59AM 39.3792 -81.4356 36° Northeast 341 392 25,000  Level Indianapolis Center
04:00AM 39.4558 -81.3603 37° Northeast 344 396 25,000  Level Indianapolis Center
04:01AM 39.5331 -81.2886 36° Northeast 342 394 25,000  Level Indianapolis Center
04:02AM 39.6100 -81.2122 37° Northeast 347 399 25,000  Level Indianapolis Center
04:03AM 39.6875 -81.1403 36° Northeast 344 396 25,000  Level Indianapolis Center
04:04AM 39.7642 -81.0661 37° Northeast 343 395 25,000  Level Indianapolis Center
04:05AM 39.8414 -80.9931 36° Northeast 343 395 25,000  Level Indianapolis Center
04:06AM 39.9181 -80.9197 36° Northeast 342 394 25,000  Level Indianapolis Center
04:07AM 40.0019 -80.8403 36° Northeast 347 399 25,000  Level Indianapolis Center
04:08AM 40.0808 -80.7658 36° Northeast 347 399 25,000  Level Indianapolis Center
04:09AM 40.1589 -80.6883 37° Northeast 349 402 25,000  Level Indianapolis Center
04:10AM 40.2372 -80.6147 36° Northeast 345 397 25,000  Level Indianapolis Center
04:11AM 40.3158 -80.5389 36° Northeast 348 400 25,000  Level Indianapolis Center
04:12AM 40.3931 -80.4631 37° Northeast 345 397 25,000  Level Indianapolis Center
04:13AM 40.4697 -80.3897 36° Northeast 340 391 25,000  Level Indianapolis Center
04:14AM 40.5489 -80.3133 36° Northeast 348 400 25,000  Level Indianapolis Center
04:15AM 40.6564 -80.2072 37° Northeast 346 398 25,000  Level Cleveland Center
04:16AM 40.7336 -80.1322 36° Northeast 346 398 25,000  Level Cleveland Center
04:17AM 40.8106 -80.0569 37° Northeast 346 398 25,000  Level Cleveland Center
04:18AM 40.8794 -79.9844 39° Northeast 348 400 25,000  Level Cleveland Center
04:19AM 40.9575 -79.9100 36° Northeast 348 400 25,000  Level Cleveland Center
04:20AM 41.0353 -79.8328 37° Northeast 348 400 25,000  Level Cleveland Center
04:21AM 41.1108 -79.7564 37° Northeast 346 398 25,000  Level Cleveland Center
04:22AM 41.1967 -79.6714 37° Northeast 350 403 25,000  Level Cleveland Center
04:23AM 41.2681 -79.5997 37° Northeast 350 403 25,000  Level Cleveland Center
04:24AM 41.3444 -79.5189 38° Northeast 351 404 25,000  Level Cleveland Center
04:25AM 41.4292 -79.4328 37° Northeast 352 405 25,000  Level Cleveland Center
04:26AM 41.5083 -79.3547 36° Northeast 352 405 25,000  Level Cleveland Center
04:27AM 41.5872 -79.2744 37° Northeast 354 407 25,000  Level Cleveland Center
04:28AM 41.6714 -79.1911 36° Northeast 360 414 25,000 -240 Level Cleveland Center
04:29AM 41.7497 -79.1108 37° Northeast 358 412 24,600 -900 Descending Cleveland Center
04:30AM 41.8281 -79.0281 38° Northeast 359 413 23,300 -1,260 Descending Cleveland Center
04:31AM 41.9078 -78.9497 36° Northeast 358 412 22,100 -1,200 Descending Cleveland Center
04:32AM 41.9811 -78.8697 39° Northeast 350 403 21,000 -1,140 Descending Cleveland Center
04:33AM 42.0575 -78.7900 38° Northeast 350 403 19,900 -1,140 Descending Cleveland Center
04:34AM 42.1317 -78.7125 38° Northeast 343 395 18,800 -1,200 Descending Cleveland Center
04:35AM 42.2072 -78.6339 38° Northeast 336 387 17,600 -1,320 Descending Cleveland Center
04:36AM 42.2806 -78.5614 36° Northeast 329 379 16,200 -1,380 Descending Cleveland Center
04:37AM 42.3511 -78.4867 38° Northeast 324 373 14,900 -1,140 Descending Cleveland Center
04:38AM 42.4181 -78.4147 38° Northeast 310 357 14,000 -900 Descending Cleveland Center
04:39AM 42.4825 -78.3503 36° Northeast 293 337 13,100 -1,080 Descending Cleveland Center
04:40AM 42.5439 -78.2817 39° Northeast 288 331 11,900 -960 Descending Cleveland Center
04:41AM 42.6058 -78.2142 39° Northeast 287 330 11,200 -480 Descending Cleveland Center
04:42AM 42.6678 -78.1503 37° Northeast 264 304 11,000 -240 Descending Cleveland Center
04:42AM 42.6653 -78.1525 213° Southwest 271 312 11,000  Level Cleveland Center
04:42AM 42.6728 -78.1458 33° Northeast 263 303 11,000  Level Cleveland Center
04:43AM 42.7214 -78.0931 39° Northeast 255 293 11,000  Level Cleveland Center
04:43AM 42.7283 -78.0858 37° Northeast 253 291 11,000 -1,200 Level Cleveland Center
04:44AM 42.7767 -78.0389 35° Northeast 248 285 9,800 -1,440 Descending Cleveland Center
04:44AM 42.7831 -78.0314 41° Northeast 245 282 9,600 -1,680 Descending Cleveland Center
04:45AM 42.8300 -77.9661 46° Northeast 258 297 8,100 -1,500 Descending Cleveland Center
04:45AM 42.8336 -77.9614 44° Northeast 260 299 8,100 -1,320 Level Cleveland Center
04:46AM 42.8811 -77.9058 41° Northeast 257 296 6,800 -1,500 Descending Cleveland Center
04:46AM 42.8850 -77.9003 46° Northeast 237 273 6,600 -2,040 Descending Cleveland Center
04:47AM 42.9269 -77.8414 46° Northeast 242 278 4,800 -2,100 Descending Cleveland Center
04:47AM 42.9353 -77.8328 37° Northeast 228 262 4,500 -840 Descending Cleveland Center
04:48AM 42.9708 -77.8000 34° Northeast 213 245 4,000 -540 Descending Cleveland Center
04:48AM 42.9764 -77.7975 18° North 146 168 4,000 -120 Level Cleveland Center
04:49AM 43.0036 -77.7739 32° Northeast 145 167 3,900 -240 Descending Cleveland Center
04:49AM 43.0078 -77.7711 26° Northeast 135 155 3,800 -1,500 Descending Cleveland Center
04:50AM 43.0336 -77.7481 33° Northeast 137 158 2,400 -1,500 Descending Cleveland Center
04:50AM 43.0386 -77.7475 North 117 135 2,300 -420 Descending Cleveland Center
04:51AM 43.0611 -77.7261 35° Northeast 125 144 2,000 -540 Descending Cleveland Center
04:51AM 43.0656 -77.7228 29° Northeast 116 133 1,800 -900 Descending Cleveland Center
04:52AM 43.0889 -77.7025 32° Northeast 121 139 1,100 -840 Descending Cleveland Center
04:52AM 43.0944 -77.6986 27° Northeast 120 138 1,000 -540 Descending Cleveland Center
04:53AM 43.1136 -77.6811 34° Northeast 116 133 600 -480 Descending Cleveland Center
04:55AM 43.1167 -77.6667 36° Northeast  Level FlightAware Approximate